createdAt,value
2022-10-31T00:00:31.647Z,11.10
2022-10-31T00:02:58.668Z,11.10
2022-10-31T00:05:25.541Z,11.10
2022-10-31T00:07:54.920Z,11.10
2022-10-31T00:10:21.520Z,11.10
2022-10-31T00:12:49.182Z,11.20
2022-10-31T00:15:15.821Z,11.10
2022-10-31T00:17:42.428Z,11.10
2022-10-31T00:20:10.549Z,11.10
2022-10-31T00:22:37.217Z,11.10
2022-10-31T00:25:04.077Z,11.10
2022-10-31T00:27:30.688Z,11.00
2022-10-31T00:29:57.312Z,11.10
2022-10-31T00:32:23.902Z,11.10
2022-10-31T00:34:50.486Z,11.10
2022-10-31T00:37:17.036Z,11.10
2022-10-31T00:39:46.024Z,11.10
2022-10-31T00:42:12.602Z,11.10
2022-10-31T00:44:39.177Z,11.10
2022-10-31T00:47:05.734Z,11.10
2022-10-31T00:49:32.309Z,11.10
2022-10-31T00:51:58.916Z,11.10
2022-10-31T00:54:25.508Z,11.10
2022-10-31T00:56:52.051Z,11.10
2022-10-31T00:59:18.727Z,11.10
2022-10-31T01:01:45.496Z,11.00
2022-10-31T01:04:12.123Z,11.00
2022-10-31T01:06:38.726Z,11.00
2022-10-31T01:09:05.372Z,10.90
2022-10-31T01:11:32.334Z,10.90
2022-10-31T01:13:59.022Z,11.00
2022-10-31T01:16:27.746Z,10.90
2022-10-31T01:18:54.358Z,10.90
2022-10-31T01:21:26.659Z,10.80
2022-10-31T01:23:57.065Z,10.80
2022-10-31T01:26:30.776Z,10.90
2022-10-31T01:29:00.112Z,10.80
2022-10-31T01:31:32.712Z,10.80
2022-10-31T01:33:59.662Z,10.70
2022-10-31T01:36:27.722Z,10.70
2022-10-31T01:38:58.314Z,10.70
2022-10-31T01:41:27.732Z,10.70
2022-10-31T01:43:55.665Z,10.60
2022-10-31T01:46:35.402Z,10.60
2022-10-31T01:49:06.364Z,10.50
2022-10-31T01:51:39.593Z,10.50
2022-10-31T01:54:11.552Z,10.50
2022-10-31T01:56:42.274Z,10.60
2022-10-31T01:59:11.803Z,10.50
2022-10-31T02:01:39.187Z,10.50
2022-10-31T02:04:07.658Z,10.40
2022-10-31T02:06:44.074Z,10.40
2022-10-31T02:09:13.151Z,10.30
2022-10-31T02:11:41.085Z,10.20
2022-10-31T02:14:07.720Z,10.10
2022-10-31T02:16:34.372Z,10.20
2022-10-31T02:19:01.095Z,10.20
2022-10-31T02:22:06.612Z,10.20
2022-10-31T02:24:44.077Z,10.20
2022-10-31T02:27:43.679Z,10.20
2022-10-31T02:30:36.865Z,10.20
2022-10-31T02:33:30.647Z,10.20
2022-10-31T02:36:12.737Z,10.10
2022-10-31T02:38:48.404Z,10.20
2022-10-31T02:41:26.354Z,10.30
2022-10-31T02:44:02.035Z,10.30
2022-10-31T02:46:49.282Z,10.30
2022-10-31T02:49:24.723Z,10.30
2022-10-31T02:51:51.599Z,10.20
2022-10-31T02:54:24.646Z,10.20
2022-10-31T02:56:55.802Z,10.10
2022-10-31T02:59:23.806Z,10.10
2022-10-31T03:01:53.563Z,10.10
2022-10-31T03:04:43.157Z,10.20
2022-10-31T03:07:29.830Z,10.20
2022-10-31T03:10:18.139Z,10.20
2022-10-31T03:13:00.704Z,10.20
2022-10-31T03:15:32.899Z,10.10
2022-10-31T03:18:19.025Z,10.10
2022-10-31T03:21:00.467Z,10.00
2022-10-31T03:23:28.351Z,10.00
2022-10-31T03:25:55.843Z,10.00
2022-10-31T03:28:28.010Z,10.10
2022-10-31T03:30:55.676Z,10.10
2022-10-31T03:33:29.785Z,10.10
2022-10-31T03:36:01.320Z,10.10
2022-10-31T03:38:29.162Z,10.10
2022-10-31T03:40:58.875Z,10.00
2022-10-31T03:43:31.021Z,9.90
2022-10-31T03:45:57.853Z,10.00
2022-10-31T03:48:25.291Z,9.90
2022-10-31T03:51:13.956Z,9.90
2022-10-31T03:54:09.718Z,9.90
2022-10-31T03:56:41.355Z,9.90
2022-10-31T03:59:18.812Z,9.90
2022-10-31T04:01:51.717Z,9.90
2022-10-31T04:04:20.219Z,9.80
2022-10-31T04:06:48.182Z,9.80
2022-10-31T04:09:16.040Z,9.80
2022-10-31T04:11:48.804Z,9.80
2022-10-31T04:14:15.416Z,9.80
2022-10-31T04:16:44.401Z,9.70
2022-10-31T04:19:12.657Z,9.70
2022-10-31T04:21:39.415Z,9.60
2022-10-31T04:24:06.408Z,9.60
2022-10-31T04:26:32.978Z,9.60
2022-10-31T04:28:59.576Z,9.50
2022-10-31T04:31:26.163Z,9.50
2022-10-31T04:33:52.736Z,9.50
2022-10-31T04:36:19.524Z,9.50
2022-10-31T04:38:46.188Z,9.50
2022-10-31T04:41:12.884Z,9.60
2022-10-31T04:43:39.452Z,9.60
2022-10-31T04:46:06.187Z,9.60
2022-10-31T04:48:32.774Z,9.70
2022-10-31T04:51:03.419Z,9.70
2022-10-31T04:53:30.301Z,9.70
2022-10-31T04:56:00.002Z,9.70
2022-10-31T04:58:26.587Z,9.70
2022-10-31T05:00:57.149Z,9.70
2022-10-31T05:03:24.473Z,9.60
2022-10-31T05:05:51.306Z,9.60
2022-10-31T05:08:18.015Z,9.60
2022-10-31T05:10:44.620Z,9.50
2022-10-31T05:13:11.475Z,9.50
2022-10-31T05:15:38.321Z,9.40
2022-10-31T05:18:05.060Z,9.40
2022-10-31T05:20:32.067Z,9.30
2022-10-31T05:22:59.736Z,9.20
2022-10-31T05:25:29.085Z,9.20
2022-10-31T05:27:57.818Z,9.20
2022-10-31T05:30:28.073Z,9.10
2022-10-31T05:32:55.336Z,9.10
2022-10-31T05:35:25.896Z,9.10
2022-10-31T05:37:52.736Z,9.20
2022-10-31T05:40:21.237Z,9.30
2022-10-31T05:42:48.683Z,9.30
2022-10-31T05:45:17.149Z,9.30
2022-10-31T05:47:50.728Z,9.30
2022-10-31T05:50:17.512Z,9.20
2022-10-31T05:52:44.154Z,9.30
2022-10-31T05:55:10.857Z,9.30
2022-10-31T05:57:37.496Z,9.40
2022-10-31T06:00:06.028Z,9.40
2022-10-31T06:02:35.279Z,9.50
2022-10-31T06:05:03.112Z,9.50
2022-10-31T06:07:35.059Z,9.40
2022-10-31T06:10:04.090Z,9.40
2022-10-31T06:12:30.901Z,9.30
2022-10-31T06:14:57.693Z,9.30
2022-10-31T06:17:24.283Z,9.30
2022-10-31T06:22:22.519Z,9.20
2022-10-31T06:24:49.124Z,9.20
2022-10-31T06:27:15.741Z,9.20
2022-10-31T06:29:42.336Z,9.30
2022-10-31T06:32:11.984Z,9.20
2022-10-31T06:34:39.419Z,9.20
2022-10-31T06:37:10.167Z,9.30
2022-10-31T06:39:37.082Z,9.30
2022-10-31T06:42:04.750Z,9.30
2022-10-31T06:44:31.835Z,9.40
2022-10-31T06:46:58.534Z,9.40
2022-10-31T06:49:25.099Z,9.50
2022-10-31T06:51:51.842Z,9.50
2022-10-31T06:54:18.617Z,9.50
2022-10-31T06:56:48.207Z,9.60
2022-10-31T06:59:15.749Z,9.70
2022-10-31T07:01:42.625Z,9.80
2022-10-31T07:04:11.403Z,9.90
2022-10-31T07:06:38.196Z,10.00
2022-10-31T07:09:04.994Z,10.10
2022-10-31T07:11:31.577Z,10.10
2022-10-31T07:13:58.154Z,10.30
2022-10-31T07:16:24.996Z,10.30
2022-10-31T07:18:51.632Z,10.40
2022-10-31T07:21:18.321Z,10.50
2022-10-31T18:44:13.407Z,10.60
2022-10-31T18:46:40.080Z,12.70
2022-10-31T18:49:06.930Z,12.40
2022-10-31T18:51:33.694Z,12.40
2022-10-31T18:54:01.554Z,12.40
2022-10-31T18:56:31.521Z,12.40
2022-10-31T18:59:02.352Z,12.40
2022-10-31T19:01:30.131Z,12.30
2022-10-31T19:03:58.352Z,12.30
2022-10-31T19:06:26.116Z,12.20
2022-10-31T19:09:01.267Z,12.10
2022-10-31T19:11:28.814Z,12.10
2022-10-31T19:13:57.162Z,12.00
2022-10-31T19:16:23.761Z,12.00
2022-10-31T19:18:57.592Z,11.90
2022-10-31T19:21:24.408Z,11.90
2022-10-31T19:23:53.510Z,11.90
2022-10-31T19:26:20.237Z,11.80
2022-10-31T19:28:47.013Z,11.80
2022-10-31T19:31:13.820Z,11.80
2022-10-31T19:33:40.427Z,11.80
2022-10-31T19:36:12.469Z,11.80
2022-10-31T19:38:41.609Z,11.70
2022-10-31T19:41:11.321Z,11.80
2022-10-31T19:43:38.060Z,11.70
2022-10-31T19:46:05.623Z,11.70
2022-10-31T19:48:32.354Z,11.70
2022-10-31T19:51:05.354Z,11.70
2022-10-31T19:53:32.626Z,11.60
2022-10-31T19:55:59.670Z,11.70
2022-10-31T19:58:26.567Z,11.60
2022-10-31T20:00:53.692Z,11.60
2022-10-31T20:03:22.535Z,11.60
2022-10-31T20:05:50.662Z,11.60
2022-10-31T20:08:21.328Z,11.60
2022-10-31T20:10:58.437Z,11.60
2022-10-31T20:13:25.595Z,11.60
2022-10-31T20:15:52.781Z,11.60
2022-10-31T20:18:19.551Z,11.60
2022-10-31T20:20:46.446Z,11.60
2022-10-31T20:23:13.169Z,11.60
2022-10-31T20:25:47.850Z,11.60
2022-10-31T20:28:14.561Z,11.50
2022-10-31T20:30:41.529Z,11.50
2022-10-31T20:33:08.405Z,11.50
2022-10-31T20:35:40.035Z,11.50
2022-10-31T20:38:07.648Z,11.50
2022-10-31T20:40:35.235Z,11.50
2022-10-31T20:43:03.201Z,11.40
2022-10-31T20:45:30.766Z,11.40
2022-10-31T20:47:57.813Z,11.30
2022-10-31T20:50:25.608Z,11.30
2022-10-31T20:52:52.761Z,11.30
2022-10-31T20:55:19.398Z,11.30
2022-10-31T20:57:46.308Z,11.20
2022-10-31T21:00:13.648Z,11.20
2022-10-31T21:02:43.770Z,11.30
2022-10-31T21:05:12.159Z,11.30
2022-10-31T21:07:39.512Z,11.30
2022-10-31T21:10:15.116Z,11.20
2022-10-31T21:12:43.958Z,11.20
2022-10-31T21:15:13.545Z,11.20
2022-10-31T21:17:41.402Z,11.20
2022-10-31T21:20:10.009Z,11.10
2022-10-31T21:22:36.808Z,11.10
2022-10-31T21:25:03.916Z,11.10
2022-10-31T21:27:31.151Z,11.10
2022-10-31T21:29:58.041Z,11.20
2022-10-31T21:32:24.727Z,11.10
2022-10-31T21:34:51.427Z,11.00
2022-10-31T21:37:18.129Z,11.00
2022-10-31T21:39:50.462Z,11.00
2022-10-31T21:42:21.311Z,11.00
2022-10-31T21:44:49.081Z,10.90
2022-10-31T21:47:15.807Z,10.80
2022-10-31T21:49:43.312Z,10.80
2022-10-31T21:52:10.205Z,10.80
2022-10-31T21:54:37.315Z,10.80
2022-10-31T21:57:04.045Z,10.80
2022-10-31T21:59:31.266Z,10.70
2022-10-31T22:02:00.328Z,10.70
2022-10-31T22:04:27.952Z,10.70
2022-10-31T22:06:54.661Z,10.60
2022-10-31T22:09:23.176Z,10.60
2022-10-31T22:11:49.836Z,10.60
2022-10-31T22:14:16.504Z,10.60
2022-10-31T22:16:43.735Z,10.50
2022-10-31T22:19:12.841Z,10.50
2022-10-31T22:21:46.311Z,10.40
2022-10-31T22:24:13.905Z,10.30
2022-10-31T22:26:40.966Z,10.40
2022-10-31T22:29:15.738Z,10.40
2022-10-31T22:31:45.025Z,10.30
2022-10-31T22:34:13.147Z,10.30
2022-10-31T22:36:40.144Z,10.30
2022-10-31T22:39:07.430Z,10.30
2022-10-31T22:41:36.000Z,10.30
2022-10-31T22:44:03.614Z,10.30
2022-10-31T22:46:32.553Z,10.20
2022-10-31T22:49:01.337Z,10.20
2022-10-31T22:51:30.334Z,10.20
2022-10-31T22:53:56.972Z,10.10
2022-10-31T22:56:26.232Z,10.00
2022-10-31T22:58:53.386Z,10.00
2022-10-31T23:01:23.081Z,10.00
2022-10-31T23:03:50.387Z,10.00
2022-10-31T23:06:20.405Z,10.00
2022-10-31T23:08:47.801Z,9.90
2022-10-31T23:11:20.089Z,9.90
2022-10-31T23:14:07.496Z,10.00
2022-10-31T23:16:35.309Z,10.00
2022-10-31T23:19:08.023Z,10.00
2022-10-31T23:21:55.742Z,10.00
2022-10-31T23:24:23.423Z,9.90
2022-10-31T23:27:09.949Z,9.90
2022-10-31T23:29:36.692Z,9.90
2022-10-31T23:32:04.719Z,9.90
2022-10-31T23:34:31.341Z,9.80
2022-10-31T23:36:58.045Z,9.80
2022-10-31T23:39:25.254Z,9.80
2022-10-31T23:41:52.127Z,9.80
2022-10-31T23:44:18.790Z,9.80
2022-10-31T23:46:45.553Z,9.80
2022-10-31T23:49:12.208Z,9.80
2022-10-31T23:51:39.229Z,9.70
2022-10-31T23:54:05.941Z,9.70
2022-10-31T23:56:32.611Z,9.60
2022-10-31T23:58:59.432Z,9.60
